Austin, Utah
Current Conditions -  °F | °C
As of 12:52 AM on Monday 24 Nov 2014 (Local Time) from KMLF Reporting Station
Clear Clear  
Wind Chill: 13°   Ceiling: Unl
Heat Index: 20°   Visibility: 10mi
Dew Point: 15°   Wind: 5mph
Humidity: 81%   Direction: 180°S
Pressure: 30.26"   Gusts: NA
Location:  38.6125°N, 112.081°W
Report Text: KMLF 240752Z AUTO 18004KT 10SM CLR M07/M09 A3026 RMK AO2 SLP265 T10671094 TSNO
Loading
Personal Weather Stations






























Interactive Weather Map New forecast layout! Learn more

10-Day Weather Forecast

Advertisements
Track Severe Weather on mobile